Aviation Digital Data Service (ADDS)

Output produced by METARs form (1047 UTC 19 January 2019)
found at http://www.aviationweather.gov/metar/data/
 
KM40 191035Z AUTO 17010G20KT 3SM BR OVC004 14/14 A2973 RMK AO2
KPMU 191035Z AUTO 19017G23KT 7SM BKN015 OVC021 17/16 A2962 RMK AO2 LTG DSNT SE AND S AND NW
KCKM 191035Z AUTO 18010KT 3SM BR BKN016 BKN024 OVC035 17/17 A2961 RMK A01
KRNV 191035Z AUTO 19017G23KT 10SM RA BKN012 BKN046 OVC085 17/17 A2961 RMK AO2 LTG DSNT ALQS T01680168
K0R0 191035Z AUTO 19010G17KT 10SM BKN014 OVC019 19/17 A2980 RMK AO2 LTG DSNT W AND NW
KGTR 190956Z AUTO 16012KT 6SM BR OVC004 14/14 A2974 RMK AO2 SLP073 T01440144
KGTR 190546Z 1906/2006 15011G22KT P6SM VCTS BKN015CB 
     FM191600 21014G25KT 4SM -TSRA BR BKN015CB 
     FM191900 24013G27KT P6SM VCSH BKN015 
     FM192200 29015G25KT P6SM BKN025
       
KCRX 191035Z AUTO 14012KT 7SM -DZ OVC005 13/13 A2966 RMK AO2 LTG DSNT NE AND S AND SW
KGLH 191031Z AUTO 18017KT 10SM SCT011 OVC039 17/15 A2959 RMK AO2 LTG DSNT W RAE00 P0000 T01670150
KGLH 190546Z 1906/2006 17017G28KT P6SM VCTS SCT009 BKN015CB 
     FM191500 23015G29KT P6SM VCSH BKN015 
     FM191900 29019G32KT P6SM VCSH OVC025 
     FM192100 32019G38KT P6SM BKN015
       
KGWO 191044Z AUTO 18018KT 5SM RA BR BKN075 OVC090 17/16 A2967 RMK AO2 PK WND 17026/1011 LTG DSNT NE AND SE TSE19 P0029 T01670156
KGWO 190546Z 1906/2006 18014G24KT P6SM VCTS BKN015CB 
     FM191300 20015G25KT 5SM -TSRA BR OVC015CB 
     FM191700 25014G24KT P6SM VCTS BKN025CB 
     FM191900 27015G26KT P6SM VCSH BKN015 
     FM192100 28015G24KT P6SM OVC025
       
KGPT 190953Z AUTO 18009KT 10SM HZ OVC080 17/16 A2985 RMK AO2 SLP107 T01720156 TSNO
KGPT 190526Z 1906/2006 16005KT P6SM BKN013 BKN180 
     FM191500 20014G24KT P6SM VCSH OVC028 WS020/20045KT 
     FM191900 22015KT 5SM -SHRA VCTS OVC016CB 
     FM192200 28014G25KT P6SM VCSH OVC020
       
KHBG 190953Z AUTO 19011G20KT 10SM BKN016 OVC021 19/16 A2982 RMK AO2 SLP096 T01890161
KHBG 190558Z 1906/2006 17009KT P6SM VCSH BKN008 
     FM191500 19013G21KT P6SM VCTS BKN015CB 
     FM191700 21012G22KT 4SM -TSRA BR BKN025CB 
     FM192000 24011G19KT P6SM VCSH BKN025 
     FM192200 27013G25KT P6SM BKN025
       
KPIB 190956Z AUTO 19009G14KT 160V230 10SM OVC015 18/16 A2981 RMK AO2 SLP094 T01780161
KPIB 190558Z 1906/2006 17009KT P6SM VCSH BKN008 
     FM191500 19013G21KT P6SM VCTS BKN015CB 
     FM191700 21012G22KT 4SM -TSRA BR BKN025CB 
     FM192000 24011G19KT P6SM VCSH BKN025 
     FM192200 27012G25KT P6SM BKN025
       
KHKS 191030Z AUTO 15013KT 8SM VCTS -RA SCT012 BKN020 OVC033 18/17 A2967 RMK AO2 LTG DSNT E-SW P0006 T01780172
KHKS 190546Z 1906/2006 16010G20KT P6SM VCTS BKN008CB 
     FM190800 18011G22KT P6SM SHRA VCTS BKN015CB 
     FM191400 19012G27KT 4SM -TSRA BR BKN015CB 
     FM191700 24012G26KT P6SM VCSH BKN025 
     FM192200 29013G29KT P6SM BKN015
       
KJAN 191038Z 16012KT 10SM -TSRA BKN015 OVC025 18/16 A2968 RMK AO2 LTG DSNT E-SW RAB08 TSE00B19 P0006 T01780161 $
KJAN 190546Z 1906/2006 16010G20KT P6SM VCTS SCT010 BKN025CB 
     FM190800 18011G22KT P6SM SHRA VCTS BKN015CB 
     FM191400 19012G27KT 4SM -TSRA BR BKN015CB 
     FM191700 24012G26KT P6SM VCSH BKN025 
     FM192200 29013G29KT P6SM BKN015
       
KLUL 191035Z AUTO 18009G16KT 10SM OVC016 18/16 A2978 RMK AO2 T01770156
KMBO 191035Z AUTO 13005KT 7SM VCTS BKN003 BKN006 OVC012 16/16 A2967 RMK AO2 LTG DSNT ALQS
KMCB 191040Z AUTO 19014G20KT 10SM BKN015 OVC020 19/16 A2975 RMK AO2 T01890156
KMCB 190526Z 1906/2006 18009KT P6SM VCSH OVC008 
     FM191200 19014KT P6SM VCSH OVC009 WS020/20045KT 
     FM191500 24015KT 3SM TSRA OVC015CB 
     FM191800 27014KT P6SM BKN029
       
KMEI 190958Z AUTO 19014KT 10SM BKN010 BKN015 OVC021 17/15 A2978 RMK AO2 RAB10E29 CIG 008V014 SLP081 P0000 I1000 T01670150 TSNO
KMEI 190558Z 1906/2006 17008KT P6SM VCSH BKN008 
     FM191300 19012G21KT P6SM VCTS BKN015CB 
     FM191700 21013G22KT 4SM -TSRA BR BKN015CB 
     FM191900 23012G22KT P6SM VCSH BKN025 
     FM192300 27012G21KT P6SM BKN025
       
KHEZ 191003Z AUTO 19017G23KT 10SM -RA OVC015 19/17 A2968 RMK AO2 LTG DSNT W-NE TSE0957 P0000
KOLV 191035Z AUTO 13005KT 4SM HZ OVC009 11/ A2960 RMK A01
KUOX 191035Z AUTO 19009G17KT 140V240 9SM BKN009 OVC013 15/15 A2966 RMK AO2
KPQL 190953Z AUTO 19007KT 10SM FEW085 FEW110 19/16 A2987 RMK AO2 RAB48E50 SLP114 P0000 T01890161
KJVW 191035Z AUTO 16011G17KT 10SM VCTS SCT018 BKN024 OVC029 18/18 A2966 RMK AO2
KSTF 191035Z AUTO 18008KT 7SM OVC008 15/15 A2973 RMK AO2 PWINO
KUTA 191035Z AUTO 19008KT 7SM -RA 15/15 A2960 RMK AO2 P0009 TSNO
KTUP 191013Z AUTO 17010KT 2 1/2SM BR OVC003 14/13 A2969 RMK AO2 P0001 T01390128
KTUP 191012Z 1910/2006 17010G20KT 6SM -RA BR VCTS BKN008CB OVC025 WS020/22050KT 
     TEMPO 1910/1914 VRB10G25KT 2SM -TSRA BR OVC003CB 
     FM191500 24013G20KT 6SM -RA VCTS SCT015CB OVC025 
     FM192100 28015KT 5SM -RA VCTS OVC015CB 
     FM200000 35020KT P6SM OVC025
       
KVKS 191035Z AUTO 34008KT 1 3/4SM BR SCT003 BKN008 OVC016 18/18 A2965 RMK A01
K5A6 191035Z AUTO 20004KT 5SM VCTSRA SCT010 BKN046 OVC080 16/16 A2971 RMK AO2 LTG DSNT ALQS T01600160